createdAt,value
2023-01-25T00:01:06.909Z,15.53
2023-01-25T00:03:34.975Z,15.93
2023-01-25T00:06:03.349Z,15.60
2023-01-25T00:08:31.411Z,15.27
2023-01-25T00:10:59.847Z,15.43
2023-01-25T00:13:28.111Z,15.87
2023-01-25T00:16:01.740Z,13.87
2023-01-25T00:18:31.141Z,16.93
2023-01-25T00:20:59.128Z,14.43
2023-01-25T00:23:27.138Z,14.87
2023-01-25T00:25:58.947Z,15.37
2023-01-25T00:28:27.029Z,16.93
2023-01-25T00:30:55.006Z,17.03
2023-01-25T00:33:44.862Z,16.60
2023-01-25T00:36:33.939Z,16.27
2023-01-25T00:39:01.941Z,14.67
2023-01-25T00:41:30.007Z,16.40
2023-01-25T00:43:58.566Z,15.13
2023-01-25T00:46:26.609Z,15.87
2023-01-25T00:48:56.498Z,14.43
2023-01-25T00:51:25.199Z,15.87
2023-01-25T00:53:53.512Z,15.73
2023-01-25T00:56:21.773Z,15.60
2023-01-25T00:58:49.842Z,14.17
2023-01-25T01:01:20.128Z,15.20
2023-01-25T01:03:48.185Z,13.93
2023-01-25T01:06:17.600Z,15.17
2023-01-25T01:08:46.478Z,15.50
2023-01-25T01:11:14.936Z,15.93
2023-01-25T01:13:43.124Z,13.77
2023-01-25T01:16:13.312Z,15.67
2023-01-25T01:18:43.390Z,15.43
2023-01-25T01:21:12.458Z,16.40
2023-01-25T01:23:42.351Z,14.53
2023-01-25T01:26:12.951Z,14.77
2023-01-25T01:28:41.645Z,15.20
2023-01-25T01:31:13.115Z,15.83
2023-01-25T01:33:45.827Z,15.77
2023-01-25T01:36:16.115Z,15.37
2023-01-25T01:38:46.058Z,16.13
2023-01-25T01:41:14.702Z,16.20
2023-01-25T01:43:42.975Z,16.73
2023-01-25T01:46:16.528Z,15.77
2023-01-25T01:48:48.844Z,15.70
2023-01-25T01:51:22.496Z,15.53
2023-01-25T01:53:56.647Z,17.63
2023-01-25T01:56:30.924Z,17.40
2023-01-25T01:59:04.883Z,16.47
2023-01-25T02:01:33.979Z,16.33
2023-01-25T02:04:03.251Z,16.10
2023-01-25T02:06:37.657Z,17.10
2023-01-25T02:09:07.233Z,16.20
2023-01-25T02:11:35.474Z,16.73
2023-01-25T02:14:04.906Z,16.23
2023-01-25T02:16:33.127Z,16.37
2023-01-25T02:19:03.578Z,15.93
2023-01-25T02:21:39.566Z,16.77
2023-01-25T02:24:14.429Z,16.87
2023-01-25T02:26:45.843Z,17.30
2023-01-25T02:29:14.950Z,16.50
2023-01-25T02:31:45.761Z,17.30
2023-01-25T02:34:13.895Z,17.67
2023-01-25T02:36:41.984Z,16.40
2023-01-25T02:39:13.732Z,16.27
2023-01-25T02:41:45.479Z,17.53
2023-01-25T02:44:17.158Z,15.23
2023-01-25T02:46:46.513Z,16.27
2023-01-25T02:49:16.357Z,16.37
2023-01-25T02:51:48.844Z,15.83
2023-01-25T02:54:18.732Z,15.97
2023-01-25T02:56:48.188Z,15.30
2023-01-25T02:59:16.583Z,16.07
2023-01-25T03:01:49.443Z,15.00
2023-01-25T03:04:17.876Z,14.77
2023-01-25T03:06:45.915Z,14.90
2023-01-25T03:09:13.979Z,15.40
2023-01-25T03:11:47.827Z,14.23
2023-01-25T03:14:16.988Z,14.23
2023-01-25T03:16:45.015Z,14.33
2023-01-25T03:19:13.231Z,15.07
2023-01-25T03:21:42.263Z,15.20
2023-01-25T03:24:11.306Z,15.50
2023-01-25T03:27:02.365Z,14.47
2023-01-25T03:29:47.152Z,15.07
2023-01-25T03:32:20.168Z,15.00
2023-01-25T03:34:49.585Z,13.83
2023-01-25T03:37:19.517Z,15.20
2023-01-25T03:39:49.375Z,14.60
2023-01-25T03:42:21.342Z,14.80
2023-01-25T03:44:54.676Z,15.27
2023-01-25T03:47:22.992Z,14.87
2023-01-25T03:49:52.630Z,15.00
2023-01-25T03:52:20.883Z,14.03
2023-01-25T03:54:49.218Z,15.00
2023-01-25T03:57:17.324Z,14.90
2023-01-25T03:59:53.865Z,15.67
2023-01-25T04:02:22.187Z,15.47
2023-01-25T04:04:50.382Z,15.60
2023-01-25T04:07:20.504Z,15.27
2023-01-25T04:09:50.184Z,14.60
2023-01-25T04:12:18.992Z,14.03
2023-01-25T04:14:47.727Z,15.43
2023-01-25T04:17:24.007Z,15.00
2023-01-25T04:20:04.295Z,15.33
2023-01-25T04:22:40.031Z,14.70
2023-01-25T04:25:09.190Z,14.33
2023-01-25T04:27:41.877Z,15.37
2023-01-25T04:30:14.455Z,14.63
2023-01-25T04:32:45.862Z,12.70
2023-01-25T04:35:21.728Z,15.93
2023-01-25T04:37:55.018Z,14.43
2023-01-25T04:40:25.196Z,15.20
2023-01-25T04:42:53.348Z,14.77
2023-01-25T04:45:21.450Z,14.03
2023-01-25T04:47:51.050Z,14.77
2023-01-25T04:50:19.213Z,13.60
2023-01-25T04:52:47.801Z,14.50
2023-01-25T04:55:16.064Z,13.63
2023-01-25T04:57:45.168Z,13.97
2023-01-25T05:00:13.954Z,14.63
2023-01-25T05:02:42.005Z,13.63
2023-01-25T05:05:12.191Z,15.13
2023-01-25T05:07:40.757Z,14.73
2023-01-25T05:10:11.113Z,15.20
2023-01-25T05:12:47.897Z,13.57
2023-01-25T05:15:16.352Z,14.20
2023-01-25T05:17:44.760Z,14.57
2023-01-25T05:20:14.596Z,13.87
2023-01-25T05:22:42.682Z,13.83
2023-01-25T05:25:31.056Z,14.00
2023-01-25T05:27:58.647Z,14.83
2023-01-25T05:30:50.504Z,14.60
2023-01-25T05:33:25.088Z,14.37
2023-01-25T05:35:56.145Z,13.80
2023-01-25T05:38:25.184Z,15.17
2023-01-25T05:40:53.224Z,15.73
2023-01-25T05:43:23.566Z,14.20
2023-01-25T05:45:54.060Z,15.43
2023-01-25T05:48:22.201Z,16.00
2023-01-25T05:50:50.360Z,15.20
2023-01-25T05:53:27.323Z,15.23
2023-01-25T05:55:55.484Z,17.00
2023-01-25T05:58:23.901Z,15.27
2023-01-25T06:00:51.935Z,17.53
2023-01-25T06:03:34.741Z,16.27
2023-01-25T06:06:03.786Z,17.17
2023-01-25T06:08:35.080Z,16.23
2023-01-25T06:11:07.959Z,16.77
2023-01-25T06:13:36.704Z,17.03
2023-01-25T06:16:05.938Z,18.67
2023-01-25T06:18:43.503Z,18.90
2023-01-25T06:21:21.699Z,17.43
2023-01-25T06:23:51.113Z,17.23
2023-01-25T06:26:19.114Z,20.07
2023-01-25T06:28:47.147Z,18.27
2023-01-25T06:31:17.074Z,21.17
2023-01-25T06:33:48.436Z,19.67
2023-01-25T06:36:18.566Z,20.23
2023-01-25T06:38:51.640Z,20.03
2023-01-25T06:41:20.535Z,19.23
2023-01-25T06:43:51.280Z,19.27
2023-01-25T06:46:20.251Z,20.60
2023-01-25T06:48:48.415Z,19.27
2023-01-25T06:51:17.746Z,21.60
2023-01-25T06:53:47.251Z,19.33
2023-01-25T06:56:18.756Z,22.10
2023-01-25T06:58:47.395Z,20.93
2023-01-25T07:01:19.804Z,21.67
2023-01-25T07:03:49.678Z,21.63
2023-01-25T07:06:17.996Z,23.20
2023-01-25T07:08:46.211Z,22.20
2023-01-25T07:11:18.923Z,21.23
2023-01-25T07:13:48.114Z,20.83
2023-01-25T07:16:18.192Z,22.93
2023-01-25T07:18:46.737Z,22.03
2023-01-25T07:21:16.697Z,23.40
2023-01-25T07:23:45.383Z,23.60
2023-01-25T07:26:18.668Z,24.23
2023-01-25T07:28:47.404Z,23.43
2023-01-25T07:31:16.130Z,24.60
2023-01-25T07:33:44.883Z,26.27
2023-01-25T07:36:12.914Z,23.50
2023-01-25T07:38:40.984Z,24.97
2023-01-25T07:41:09.053Z,25.50
2023-01-25T07:43:38.453Z,25.73
2023-01-25T07:46:11.153Z,26.33
2023-01-25T07:48:39.645Z,26.27
2023-01-25T07:51:22.666Z,28.60
2023-01-25T07:53:52.328Z,28.40
2023-01-25T07:56:21.219Z,29.20
2023-01-25T07:58:50.571Z,28.43
2023-01-25T08:01:20.603Z,27.93
2023-01-25T08:03:49.584Z,28.50
2023-01-25T08:06:18.089Z,27.07
2023-01-25T08:08:48.596Z,31.40
2023-01-25T08:11:20.198Z,28.37
2023-01-25T08:13:50.222Z,27.40
2023-01-25T08:16:20.482Z,30.60
2023-01-25T08:18:49.124Z,29.57
2023-01-25T08:21:17.155Z,30.30
2023-01-25T08:23:45.711Z,31.47
2023-01-25T08:26:15.468Z,31.50
2023-01-25T08:28:43.472Z,33.10
2023-01-25T08:31:15.023Z,29.57
2023-01-25T08:33:46.070Z,33.50
2023-01-25T08:36:14.415Z,31.97
2023-01-25T08:38:42.735Z,31.97
2023-01-25T08:41:13.166Z,30.77
2023-01-25T08:43:41.216Z,30.83
2023-01-25T08:46:09.741Z,30.90
2023-01-25T08:48:39.271Z,30.17
2023-01-25T08:51:09.733Z,30.73
2023-01-25T08:53:37.751Z,30.97
2023-01-25T08:56:06.776Z,30.20
2023-01-25T08:58:35.298Z,30.67
2023-01-25T09:01:04.748Z,31.37
2023-01-25T09:03:33.294Z,32.57
2023-01-25T09:06:02.669Z,31.77
2023-01-25T09:08:30.742Z,33.27
2023-01-25T09:11:02.422Z,34.30
2023-01-25T09:13:30.628Z,33.80
2023-01-25T09:16:02.320Z,30.50
2023-01-25T09:18:31.266Z,28.23
2023-01-25T09:20:59.355Z,30.97
2023-01-25T09:23:33.197Z,32.00
2023-01-25T09:26:02.475Z,29.93
2023-01-25T09:28:31.823Z,30.00
2023-01-25T09:31:20.039Z,29.77
2023-01-25T09:34:08.680Z,30.17
2023-01-25T09:36:37.246Z,30.20
2023-01-25T09:39:06.743Z,31.60
2023-01-25T09:41:51.663Z,30.10
2023-01-25T09:44:39.204Z,30.03
2023-01-25T09:47:15.915Z,30.73
2023-01-25T09:49:59.323Z,30.10
2023-01-25T09:52:50.874Z,30.03
2023-01-25T09:55:23.859Z,30.30
2023-01-25T09:57:55.359Z,31.43
2023-01-25T10:00:29.228Z,29.77
2023-01-25T10:03:02.920Z,29.13
2023-01-25T10:05:38.587Z,29.40
2023-01-25T10:08:15.046Z,28.67
2023-01-25T10:10:48.815Z,29.60
2023-01-25T10:13:22.412Z,27.40
2023-01-25T10:15:54.060Z,28.40
2023-01-25T10:18:28.340Z,28.83
2023-01-25T10:20:59.964Z,29.00
2023-01-25T10:23:41.403Z,29.43
2023-01-25T10:26:16.243Z,29.27
2023-01-25T10:28:52.416Z,29.03
2023-01-25T10:31:25.712Z,28.97
2023-01-25T10:33:57.143Z,30.13
2023-01-25T10:36:30.690Z,27.93
2023-01-25T10:39:00.928Z,27.67
2023-01-25T10:41:37.638Z,29.23
2023-01-25T10:44:24.612Z,29.53
2023-01-25T10:46:58.993Z,29.57
2023-01-25T10:49:34.911Z,29.53
2023-01-25T10:52:15.201Z,27.90
2023-01-25T10:54:43.815Z,28.90
2023-01-25T10:57:18.243Z,29.43
2023-01-25T10:59:47.745Z,28.90
2023-01-25T11:02:39.197Z,29.90
2023-01-25T11:05:27.148Z,29.20
2023-01-25T11:07:55.492Z,29.43
2023-01-25T11:10:30.686Z,28.70
2023-01-25T11:13:26.151Z,29.07
2023-01-25T11:15:56.615Z,30.63
2023-01-25T11:18:28.437Z,29.20
2023-01-25T11:21:06.630Z,29.67
2023-01-25T11:23:35.117Z,32.93
2023-01-25T11:26:14.641Z,31.07
2023-01-25T11:28:45.489Z,30.70
2023-01-25T11:31:15.228Z,31.77
2023-01-25T11:33:43.530Z,30.17
2023-01-25T11:36:21.011Z,32.03
2023-01-25T11:39:02.046Z,31.80
2023-01-25T11:41:40.103Z,29.57
2023-01-25T11:44:38.861Z,28.23
2023-01-25T11:47:18.773Z,28.90
2023-01-25T11:49:58.201Z,27.90
2023-01-25T11:52:36.202Z,28.83
2023-01-25T11:55:18.003Z,29.10
2023-01-25T11:58:05.005Z,29.47
2023-01-25T12:01:07.063Z,30.40
2023-01-25T12:03:55.052Z,30.17
2023-01-25T12:06:29.794Z,31.83
2023-01-25T12:09:22.849Z,31.50
2023-01-25T12:12:17.647Z,33.00
2023-01-25T12:15:03.838Z,31.97
2023-01-25T12:17:49.672Z,31.63
2023-01-25T12:20:33.165Z,33.03
2023-01-25T12:23:20.920Z,30.43
2023-01-25T12:25:59.494Z,32.13
2023-01-25T12:28:35.140Z,32.83
2023-01-25T12:31:09.921Z,33.10
2023-01-25T12:33:42.866Z,34.40
2023-01-25T12:36:15.994Z,33.93
2023-01-25T12:38:50.130Z,34.77
2023-01-25T12:41:29.260Z,34.07
2023-01-25T12:44:04.455Z,32.60
2023-01-25T12:46:39.733Z,35.57
2023-01-25T12:49:19.342Z,34.97
2023-01-25T12:51:48.198Z,34.13
2023-01-25T12:54:24.468Z,35.03
2023-01-25T12:56:59.876Z,36.47
2023-01-25T12:59:35.103Z,35.43
2023-01-25T13:02:15.585Z,32.70
2023-01-25T13:05:00.920Z,36.13
2023-01-25T13:07:36.711Z,33.40
2023-01-25T13:10:15.252Z,35.57
2023-01-25T13:12:53.409Z,40.27
2023-01-25T13:15:41.437Z,39.50
2023-01-25T13:18:37.096Z,41.77
2023-01-25T13:21:12.178Z,44.07
2023-01-25T13:23:47.100Z,41.87
2023-01-25T13:26:46.818Z,41.53
2023-01-25T13:29:54.523Z,40.37
2023-01-25T13:32:55.489Z,39.77
2023-01-25T13:35:29.118Z,38.53
2023-01-25T13:38:38.546Z,39.50
2023-01-25T13:41:12.304Z,36.40
2023-01-25T13:43:42.508Z,38.63
2023-01-25T13:46:13.757Z,40.93
2023-01-25T13:49:03.767Z,39.90
2023-01-25T13:51:36.962Z,38.37
2023-01-25T13:54:05.218Z,41.10
2023-01-25T13:56:36.098Z,39.50
2023-01-25T13:59:04.365Z,37.57
2023-01-25T14:01:35.069Z,36.13
2023-01-25T14:04:05.557Z,36.57
2023-01-25T14:06:36.133Z,38.70
2023-01-25T14:09:07.635Z,38.67
2023-01-25T14:11:44.106Z,39.23
2023-01-25T14:14:21.193Z,38.67
2023-01-25T14:17:03.395Z,40.47
2023-01-25T14:19:33.706Z,40.50
2023-01-25T14:22:20.758Z,43.40
2023-01-25T14:25:08.009Z,42.83
2023-01-25T14:27:42.088Z,43.40
2023-01-25T14:30:18.492Z,42.43
2023-01-25T14:32:46.515Z,43.27
2023-01-25T14:35:56.445Z,40.90
2023-01-25T14:38:28.985Z,42.23
2023-01-25T14:41:00.153Z,39.50
2023-01-25T14:43:30.208Z,41.33
2023-01-25T14:45:58.376Z,42.60
2023-01-25T14:48:40.489Z,41.07
2023-01-25T14:51:16.578Z,40.37
2023-01-25T14:53:49.021Z,41.83
2023-01-25T14:56:30.455Z,39.57
2023-01-25T14:59:00.469Z,35.40
2023-01-25T15:01:36.973Z,37.40
2023-01-25T15:04:10.431Z,40.17
2023-01-25T15:06:49.455Z,36.87
2023-01-25T15:09:38.571Z,36.57
2023-01-25T15:12:27.076Z,36.63
2023-01-25T15:14:57.907Z,35.37
2023-01-25T15:17:44.082Z,37.47
2023-01-25T15:20:35.534Z,38.07
2023-01-25T15:23:23.217Z,37.63
2023-01-25T15:25:55.448Z,37.60
2023-01-25T15:28:24.318Z,36.90
2023-01-25T15:30:54.767Z,36.73
2023-01-25T15:33:24.500Z,37.23
2023-01-25T15:35:53.194Z,34.27
2023-01-25T15:38:22.477Z,35.10
2023-01-25T15:40:50.712Z,34.67
2023-01-25T15:43:20.625Z,31.67
2023-01-25T15:45:50.362Z,32.63
2023-01-25T15:48:24.117Z,32.23
2023-01-25T15:50:54.213Z,31.47
2023-01-25T15:53:22.334Z,35.17
2023-01-25T15:55:55.151Z,35.97
2023-01-25T15:58:27.741Z,34.80
2023-01-25T16:00:55.964Z,33.77
2023-01-25T16:03:25.356Z,34.83
2023-01-25T16:05:57.237Z,37.90
2023-01-25T16:08:25.440Z,36.20
2023-01-25T16:10:53.450Z,35.50
2023-01-25T16:13:22.043Z,35.27
2023-01-25T16:15:53.165Z,34.07
2023-01-25T16:18:21.546Z,33.70
2023-01-25T16:20:51.167Z,34.43
2023-01-25T16:23:19.288Z,32.60
2023-01-25T16:25:49.313Z,32.97
2023-01-25T16:28:17.671Z,31.97
2023-01-25T16:30:46.046Z,29.67
2023-01-25T16:33:14.055Z,29.33
2023-01-25T16:35:42.067Z,29.37
2023-01-25T16:38:13.433Z,29.13
2023-01-25T16:40:41.580Z,28.30
2023-01-25T16:43:09.653Z,29.23
2023-01-25T16:45:38.140Z,29.33
2023-01-25T16:48:06.716Z,27.07
2023-01-25T16:50:35.371Z,31.07
2023-01-25T16:53:03.457Z,32.03
2023-01-25T16:55:32.855Z,31.50
2023-01-25T16:58:00.855Z,30.33
2023-01-25T17:00:28.848Z,33.17
2023-01-25T17:02:59.369Z,34.03
2023-01-25T17:05:33.475Z,34.90
2023-01-25T17:08:01.631Z,36.60
2023-01-25T17:10:33.023Z,35.10
2023-01-25T17:13:02.444Z,32.63
2023-01-25T17:15:30.699Z,32.77
2023-01-25T17:17:58.770Z,31.07
2023-01-25T17:20:26.832Z,30.17
2023-01-25T17:22:54.865Z,29.13
2023-01-25T17:25:23.118Z,29.20
2023-01-25T17:27:51.113Z,28.27
2023-01-25T17:30:20.816Z,29.27
2023-01-25T17:32:48.840Z,30.50
2023-01-25T17:35:17.065Z,29.47
2023-01-25T17:37:45.066Z,30.73
2023-01-25T17:40:13.753Z,29.60
2023-01-25T17:42:41.843Z,31.80
2023-01-25T17:45:10.778Z,33.30
2023-01-25T17:47:40.826Z,33.63
2023-01-25T17:50:10.575Z,32.93
2023-01-25T17:52:38.840Z,32.13
2023-01-25T17:55:07.998Z,32.37
2023-01-25T17:57:37.164Z,31.50
2023-01-25T18:00:06.930Z,36.13
2023-01-25T18:02:46.112Z,35.10
2023-01-25T18:05:15.370Z,34.80
2023-01-25T18:07:43.619Z,34.27
2023-01-25T18:10:12.694Z,32.57
2023-01-25T18:12:41.123Z,32.50
2023-01-25T18:15:10.172Z,33.03
2023-01-25T18:17:39.135Z,33.40
2023-01-25T18:20:11.713Z,33.73
2023-01-25T18:22:39.817Z,34.67
2023-01-25T18:25:27.750Z,34.07
2023-01-25T18:27:55.976Z,34.77
2023-01-25T18:30:32.952Z,35.17
2023-01-25T18:33:01.564Z,34.53
2023-01-25T18:35:31.411Z,37.23
2023-01-25T18:37:59.628Z,36.83
2023-01-25T18:40:29.825Z,36.07
2023-01-25T18:42:58.234Z,35.37
2023-01-25T18:45:26.243Z,37.70
2023-01-25T18:47:54.354Z,37.30
2023-01-25T18:50:23.388Z,38.60
2023-01-25T18:52:53.589Z,35.83
2023-01-25T18:55:21.605Z,36.23
2023-01-25T18:57:49.639Z,38.33
2023-01-25T19:00:17.995Z,36.03
2023-01-25T19:02:46.079Z,37.63
2023-01-25T19:05:14.279Z,32.80
2023-01-25T19:07:42.286Z,37.70
2023-01-25T19:10:12.747Z,37.63
2023-01-25T19:12:40.795Z,36.00
2023-01-25T19:15:10.080Z,36.57
2023-01-25T19:17:38.574Z,36.00
2023-01-25T19:20:07.407Z,35.77
2023-01-25T19:22:35.570Z,35.60
2023-01-25T19:25:03.558Z,36.80
2023-01-25T19:27:32.940Z,38.33
2023-01-25T19:30:00.958Z,37.47
2023-01-25T19:32:28.931Z,36.60
2023-01-25T19:34:57.158Z,33.07
2023-01-25T19:37:25.246Z,35.47
2023-01-25T19:39:53.255Z,36.07
2023-01-25T19:42:21.268Z,35.43
2023-01-25T19:44:50.637Z,35.23
2023-01-25T19:47:18.772Z,35.73
2023-01-25T19:49:46.944Z,36.23
2023-01-25T19:52:15.255Z,37.17
2023-01-25T19:54:43.759Z,36.10
2023-01-25T19:57:12.843Z,35.90
2023-01-25T19:59:40.902Z,35.47
2023-01-25T20:02:12.720Z,36.40
2023-01-25T20:04:40.852Z,36.27
2023-01-25T20:07:09.311Z,36.00
2023-01-25T20:09:37.366Z,36.97
2023-01-25T20:12:07.905Z,38.70
2023-01-25T20:14:36.374Z,37.47
2023-01-25T20:17:04.480Z,35.50
2023-01-25T20:19:35.094Z,36.57
2023-01-25T20:22:03.143Z,34.97
2023-01-25T20:24:31.254Z,35.23
2023-01-25T20:26:59.628Z,34.33
2023-01-25T20:29:28.754Z,34.33
2023-01-25T20:31:56.870Z,32.03
2023-01-25T20:34:25.721Z,32.13
2023-01-25T20:36:55.178Z,30.30
2023-01-25T20:39:23.535Z,32.50
2023-01-25T20:41:53.490Z,31.10
2023-01-25T20:44:21.990Z,31.53
2023-01-25T20:46:52.193Z,31.37
2023-01-25T20:49:20.408Z,29.93
2023-01-25T20:51:48.767Z,29.83
2023-01-25T20:54:20.576Z,29.03
2023-01-25T20:56:50.240Z,31.17
2023-01-25T20:59:19.227Z,31.30
2023-01-25T21:01:47.351Z,31.07
2023-01-25T21:04:15.352Z,30.13
2023-01-25T21:06:43.373Z,31.20
2023-01-25T21:09:12.365Z,31.50
2023-01-25T21:11:41.828Z,34.33
2023-01-25T21:14:09.943Z,32.40
2023-01-25T21:16:38.094Z,34.80
2023-01-25T21:19:07.620Z,33.93
2023-01-25T21:21:35.818Z,36.60
2023-01-25T21:24:05.374Z,35.20
2023-01-25T21:26:34.957Z,37.20
2023-01-25T21:29:06.414Z,35.93
2023-01-25T21:31:36.377Z,36.23
2023-01-25T21:34:06.107Z,38.80
2023-01-25T21:36:34.152Z,41.30
2023-01-25T21:39:02.564Z,37.83
2023-01-25T21:41:33.443Z,39.77
2023-01-25T21:44:20.136Z,41.47
2023-01-25T21:47:19.305Z,37.23
2023-01-25T21:49:55.233Z,40.27
2023-01-25T21:52:23.284Z,41.97
2023-01-25T21:54:51.299Z,42.87
2023-01-25T21:57:20.057Z,41.43
2023-01-25T21:59:48.855Z,40.30
2023-01-25T22:02:18.329Z,37.67
2023-01-25T22:04:46.356Z,38.53
2023-01-25T22:07:14.374Z,38.00
2023-01-25T22:09:42.379Z,36.03
2023-01-25T22:12:12.248Z,32.73
2023-01-25T22:14:40.561Z,31.50
2023-01-25T22:17:08.623Z,32.80
2023-01-25T22:19:37.995Z,35.93
2023-01-25T22:22:06.009Z,35.40
2023-01-25T22:24:34.033Z,36.73
2023-01-25T22:27:22.337Z,38.40
2023-01-25T22:29:50.344Z,35.80
2023-01-25T22:32:18.348Z,36.43
2023-01-25T22:34:47.751Z,37.07
2023-01-25T22:37:15.770Z,38.03
2023-01-25T22:39:44.784Z,36.10
2023-01-25T22:42:12.827Z,34.90
2023-01-25T22:44:40.915Z,34.80
2023-01-25T22:47:08.877Z,35.27
2023-01-25T22:49:36.874Z,34.87
2023-01-25T22:52:06.832Z,34.10
2023-01-25T22:54:34.869Z,34.33
2023-01-25T22:57:02.874Z,32.07
2023-01-25T22:59:30.899Z,33.17
2023-01-25T23:01:59.031Z,33.50
2023-01-25T23:04:27.314Z,31.63
2023-01-25T23:07:02.623Z,32.53
2023-01-25T23:09:32.192Z,35.03
2023-01-25T23:12:00.173Z,33.30
2023-01-25T23:14:45.895Z,35.00
2023-01-25T23:17:42.793Z,34.23
2023-01-25T23:20:13.288Z,31.53
2023-01-25T23:22:41.617Z,33.63
2023-01-25T23:25:12.210Z,33.77
2023-01-25T23:27:40.508Z,32.07
2023-01-25T23:30:10.508Z,34.07
2023-01-25T23:32:38.820Z,33.17
2023-01-25T23:35:07.824Z,31.03
2023-01-25T23:37:35.831Z,34.23
2023-01-25T23:40:03.928Z,31.37
2023-01-25T23:42:33.297Z,32.93
2023-01-25T23:45:01.302Z,33.90
2023-01-25T23:47:31.127Z,33.33
2023-01-25T23:49:59.355Z,30.50
2023-01-25T23:52:27.420Z,31.60
2023-01-25T23:54:55.412Z,32.77
2023-01-25T23:57:23.555Z,32.30
2023-01-25T23:59:53.019Z,31.73
